createdAt,value
2023-04-16T00:02:19.618Z,100725.09
2023-04-16T00:04:50.831Z,100727.06
2023-04-16T00:07:21.043Z,100734.25
2023-04-16T00:09:51.253Z,100727.38
2023-04-16T00:12:21.361Z,100715.66
2023-04-16T00:14:51.574Z,100720.50
2023-04-16T00:17:21.490Z,100712.78
2023-04-16T00:19:53.915Z,100709.50
2023-04-16T00:22:24.198Z,100707.88
2023-04-16T00:24:54.629Z,100708.25
2023-04-16T00:27:24.635Z,100706.16
2023-04-16T00:29:54.810Z,100710.16
2023-04-16T00:32:25.117Z,100704.09
2023-04-16T00:34:57.127Z,100707.28
2023-04-16T00:37:27.379Z,100709.63
2023-04-16T00:39:56.943Z,100722.91
2023-04-16T00:42:27.705Z,100721.25
2023-04-16T00:44:57.848Z,100733.69
2023-04-16T00:47:28.423Z,100730.06
2023-04-16T00:49:59.958Z,100725.97
2023-04-16T00:52:31.869Z,100732.78
2023-04-16T00:55:01.870Z,100721.91
2023-04-16T00:57:32.626Z,100721.81
2023-04-16T01:00:02.940Z,100732.22
2023-04-16T01:02:32.698Z,100728.97
2023-04-16T01:05:06.835Z,100722.06
2023-04-16T01:07:37.272Z,100726.44
2023-04-16T01:10:08.068Z,100725.63
2023-04-16T01:12:37.789Z,100730.81
2023-04-16T01:15:09.601Z,100720.34
2023-04-16T01:17:39.830Z,100706.69
2023-04-16T01:20:12.982Z,100711.50
2023-04-16T01:22:44.972Z,100715.84
2023-04-16T01:25:17.631Z,100713.03
2023-04-16T01:27:47.922Z,100706.97
2023-04-16T01:30:18.050Z,100703.72
2023-04-16T01:32:48.426Z,100710.50
2023-04-16T01:35:18.842Z,100706.88
2023-04-16T01:37:52.577Z,100705.22
2023-04-16T01:40:22.937Z,100699.19
2023-04-16T01:42:53.433Z,100706.78
2023-04-16T01:45:23.421Z,100698.72
2023-04-16T01:47:54.382Z,100702.72
2023-04-16T01:50:24.997Z,100705.53
2023-04-16T01:52:56.538Z,100699.91
2023-04-16T01:55:27.742Z,100701.09
2023-04-16T01:57:57.337Z,100702.25
2023-04-16T02:00:26.893Z,100693.03
2023-04-16T02:02:57.467Z,100695.00
2023-04-16T02:05:27.470Z,100687.75
2023-04-16T02:07:59.617Z,100687.75
2023-04-16T02:10:29.273Z,100687.75
2023-04-16T02:12:59.350Z,100686.16
2023-04-16T02:15:28.951Z,100690.13
2023-04-16T02:17:58.770Z,100675.25
2023-04-16T02:20:29.376Z,100683.69
2023-04-16T02:23:00.913Z,100692.94
2023-04-16T02:25:31.019Z,100699.38
2023-04-16T02:28:00.623Z,100692.09
2023-04-16T02:30:31.512Z,100696.09
2023-04-16T02:33:02.227Z,100697.28
2023-04-16T02:35:32.562Z,100695.63
2023-04-16T02:38:04.922Z,100691.66
2023-04-16T02:40:35.301Z,100688.84
2023-04-16T02:43:05.794Z,100688.50
2023-04-16T02:45:36.044Z,100691.31
2023-04-16T02:48:07.579Z,100685.69
2023-04-16T02:50:37.717Z,100684.50
2023-04-16T02:53:11.143Z,100682.50
2023-04-16T02:55:40.772Z,100684.13
2023-04-16T02:58:10.930Z,100680.16
2023-04-16T03:00:40.947Z,100677.34
2023-04-16T03:03:11.036Z,100665.25
2023-04-16T03:05:41.025Z,100673.34
2023-04-16T03:08:13.312Z,100667.34
2023-04-16T03:10:43.633Z,100664.53
2023-04-16T03:13:13.865Z,100667.34
2023-04-16T03:15:44.014Z,100661.34
2023-04-16T03:18:13.677Z,100650.94
2023-04-16T03:20:43.941Z,100652.91
2023-04-16T03:23:15.531Z,100665.00
2023-04-16T03:25:47.469Z,100666.16
2023-04-16T03:28:17.588Z,100664.16
2023-04-16T03:30:54.208Z,100673.03
2023-04-16T03:33:24.307Z,100656.19
2023-04-16T03:36:01.306Z,100662.63
2023-04-16T03:38:33.307Z,100674.31
2023-04-16T03:41:02.989Z,100665.44
2023-04-16T03:43:32.988Z,100669.88
2023-04-16T03:46:03.011Z,100669.06
2023-04-16T03:48:32.594Z,100667.88
2023-04-16T03:51:02.684Z,100667.06
2023-04-16T03:53:34.248Z,100662.72
2023-04-16T03:56:03.869Z,100660.69
2023-04-16T03:58:33.774Z,100661.53
2023-04-16T04:01:03.426Z,100670.41
2023-04-16T04:03:33.193Z,100665.59
2023-04-16T04:06:03.565Z,100662.78
2023-04-16T04:08:35.048Z,100666.84
2023-04-16T04:11:05.197Z,100674.50
2023-04-16T04:13:35.385Z,100678.94
2023-04-16T04:16:05.734Z,100683.72
2023-04-16T04:18:35.394Z,100686.19
2023-04-16T04:21:09.179Z,100683.38
2023-04-16T04:23:41.950Z,100687.00
2023-04-16T04:26:11.770Z,100675.75
2023-04-16T04:28:41.920Z,100687.44
2023-04-16T04:31:12.286Z,100689.88
2023-04-16T04:33:41.940Z,100684.72
2023-04-16T04:36:11.483Z,100695.22
2023-04-16T04:38:43.024Z,100692.03
2023-04-16T04:41:12.704Z,100698.94
2023-04-16T04:43:42.897Z,100695.75
2023-04-16T04:46:13.013Z,100702.69
2023-04-16T04:48:43.126Z,100701.50
2023-04-16T04:51:13.284Z,100698.31
2023-04-16T04:53:45.294Z,100706.38
2023-04-16T04:56:14.946Z,100710.00
2023-04-16T04:58:45.000Z,100713.28
2023-04-16T05:01:15.170Z,100714.91
2023-04-16T05:03:44.879Z,100711.34
2023-04-16T05:06:14.929Z,100718.25
2023-04-16T05:08:46.545Z,100706.25
2023-04-16T05:11:16.245Z,100711.16
2023-04-16T05:13:46.143Z,100714.03
2023-04-16T05:16:16.130Z,100710.50
2023-04-16T05:18:46.368Z,100702.13
2023-04-16T05:21:16.676Z,100704.19
2023-04-16T05:23:48.677Z,100714.69
2023-04-16T05:26:18.895Z,100709.53
2023-04-16T05:28:48.516Z,100710.44
2023-04-16T05:31:18.513Z,100716.13
2023-04-16T05:33:48.727Z,100719.81
2023-04-16T05:36:18.886Z,100707.44
2023-04-16T05:38:50.540Z,100706.34
2023-04-16T05:41:20.750Z,100701.59
2023-04-16T05:43:50.941Z,100698.88
2023-04-16T05:46:21.205Z,100702.22
2023-04-16T05:48:51.357Z,100707.56
2023-04-16T05:51:23.405Z,100706.44
2023-04-16T05:53:55.511Z,100707.75
2023-04-16T05:56:25.818Z,100702.19
2023-04-16T05:58:56.002Z,100701.06
2023-04-16T06:01:25.873Z,100699.94
2023-04-16T06:03:56.012Z,100710.53
2023-04-16T06:06:27.703Z,100705.78
2023-04-16T06:08:59.725Z,100709.09
2023-04-16T06:11:29.435Z,100717.22
2023-04-16T06:13:59.666Z,100712.94
2023-04-16T06:16:29.417Z,100711.00
2023-04-16T06:18:59.646Z,100713.53
2023-04-16T06:21:30.204Z,100719.66
2023-04-16T06:24:02.324Z,100715.31
2023-04-16T06:26:32.323Z,100712.22
2023-04-16T06:29:02.422Z,100722.75
2023-04-16T06:31:33.425Z,100714.00
2023-04-16T06:34:03.278Z,100708.84
2023-04-16T06:36:33.049Z,100708.50
2023-04-16T06:39:04.069Z,100717.47
2023-04-16T06:41:34.361Z,100716.34
2023-04-16T06:44:04.520Z,100721.66
2023-04-16T06:46:34.822Z,100723.38
2023-04-16T06:49:04.931Z,100731.13
2023-04-16T06:51:35.450Z,100737.28
2023-04-16T06:54:07.082Z,100726.47
2023-04-16T06:56:37.919Z,100736.22
2023-04-16T06:59:08.122Z,100742.34
2023-04-16T07:01:38.755Z,100726.69
2023-04-16T07:04:08.945Z,100723.16
2023-04-16T07:06:39.259Z,100729.72
2023-04-16T07:09:11.132Z,100726.19
2023-04-16T07:11:41.585Z,100729.53
2023-04-16T07:14:11.781Z,100725.16
2023-04-16T07:16:42.110Z,100724.44
2023-04-16T07:19:12.368Z,100726.53
2023-04-16T07:21:44.009Z,100732.25
2023-04-16T07:24:16.123Z,100728.72
2023-04-16T07:26:45.771Z,100725.53
2023-04-16T07:29:15.681Z,100741.75
2023-04-16T07:31:45.955Z,100737.41
2023-04-16T07:34:16.140Z,100737.81
2023-04-16T07:36:46.450Z,100738.31
2023-04-16T07:39:18.514Z,100734.34
2023-04-16T07:41:48.142Z,100725.09
2023-04-16T07:44:18.239Z,100727.94
2023-04-16T07:46:48.369Z,100726.78
2023-04-16T07:49:18.701Z,100711.88
2023-04-16T07:51:49.304Z,100721.22
2023-04-16T07:54:21.417Z,100724.50
2023-04-16T07:56:51.063Z,100718.88
2023-04-16T07:59:23.404Z,100713.66
2023-04-16T08:01:56.221Z,100710.47
2023-04-16T08:04:26.830Z,100710.13
2023-04-16T08:06:56.946Z,100710.50
2023-04-16T08:09:30.192Z,100705.69
2023-04-16T08:12:00.364Z,100704.97
2023-04-16T08:14:30.616Z,100689.63
2023-04-16T08:17:00.863Z,100694.47
2023-04-16T08:19:31.290Z,100691.31
2023-04-16T08:22:01.486Z,100697.81
2023-04-16T08:24:33.530Z,100708.34
2023-04-16T08:27:15.455Z,100708.41
2023-04-16T08:29:49.523Z,100703.16
2023-04-16T08:32:19.901Z,100713.31
2023-04-16T08:34:52.465Z,100702.81
2023-04-16T08:37:22.051Z,100704.84
2023-04-16T08:39:53.773Z,100706.06
2023-04-16T08:42:33.168Z,100692.75
2023-04-16T08:45:15.973Z,100690.31
2023-04-16T08:47:49.374Z,100692.00
2023-04-16T08:50:25.049Z,100692.03
2023-04-16T08:53:00.978Z,100692.06
2023-04-16T08:55:40.984Z,100688.03
2023-04-16T08:58:16.596Z,100684.41
2023-04-16T09:00:46.573Z,100680.75
2023-04-16T09:03:16.408Z,100679.97
2023-04-16T09:05:48.061Z,100685.66
2023-04-16T09:08:19.202Z,100667.44
2023-04-16T09:10:52.851Z,100679.63
2023-04-16T09:13:23.909Z,100667.47
2023-04-16T09:15:57.489Z,100672.75
2023-04-16T09:18:28.466Z,100669.91
2023-04-16T09:20:59.464Z,100671.94
2023-04-16T09:23:29.673Z,100665.06
2023-04-16T09:26:02.550Z,100672.78
2023-04-16T09:28:49.047Z,100674.41
2023-04-16T09:31:21.131Z,100674.41
2023-04-16T09:34:06.320Z,100679.28
2023-04-16T09:36:37.793Z,100682.91
2023-04-16T09:39:11.580Z,100683.31
2023-04-16T09:41:43.531Z,100683.75
2023-04-16T09:44:13.928Z,100679.69
2023-04-16T09:46:45.476Z,100680.09
2023-04-16T09:49:19.012Z,100681.34
2023-04-16T09:51:54.996Z,100680.94
2023-04-16T09:54:24.594Z,100673.25
2023-04-16T09:57:00.131Z,100683.38
2023-04-16T09:59:34.553Z,100670.81
2023-04-16T10:02:15.449Z,100668.81
2023-04-16T10:04:51.149Z,100673.28
2023-04-16T10:07:22.165Z,100668.81
2023-04-16T10:09:53.316Z,100663.94
2023-04-16T10:12:29.712Z,100661.53
2023-04-16T10:14:59.689Z,100657.06
2023-04-16T10:17:31.438Z,100654.22
2023-04-16T10:20:03.064Z,100656.66
2023-04-16T10:22:33.728Z,100651.81
2023-04-16T10:25:04.607Z,100654.22
2023-04-16T10:27:37.038Z,100636.00
2023-04-16T10:30:09.292Z,100633.97
2023-04-16T10:32:40.920Z,100633.97
2023-04-16T10:35:11.992Z,100627.91
2023-04-16T10:37:45.648Z,100620.63
2023-04-16T10:40:30.050Z,100619.78
2023-04-16T10:43:03.033Z,100621.03
2023-04-16T10:45:40.773Z,100625.47
2023-04-16T10:48:12.209Z,100626.72
2023-04-16T10:50:42.250Z,100628.31
2023-04-16T10:53:26.849Z,100630.34
2023-04-16T10:56:12.143Z,100630.34
2023-04-16T10:58:44.446Z,100618.22
2023-04-16T11:01:17.225Z,100626.28
2023-04-16T11:03:49.612Z,100625.88
2023-04-16T11:06:26.933Z,100615.38
2023-04-16T11:08:57.641Z,100609.69
2023-04-16T11:11:28.693Z,100613.34
2023-04-16T11:14:03.545Z,100610.91
2023-04-16T11:16:35.179Z,100607.28
2023-04-16T11:19:06.266Z,100599.56
2023-04-16T11:21:37.087Z,100605.25
2023-04-16T11:24:07.664Z,100596.72
2023-04-16T11:26:37.306Z,100598.34
2023-04-16T11:29:17.401Z,100599.16
2023-04-16T11:31:53.938Z,100595.53
2023-04-16T11:34:24.739Z,100593.09
2023-04-16T11:36:55.680Z,100583.34
2023-04-16T11:39:26.397Z,100581.75
2023-04-16T11:41:56.440Z,100579.72
2023-04-16T11:44:30.060Z,100580.53
2023-04-16T11:47:00.300Z,100580.13
2023-04-16T11:49:31.071Z,100574.47
2023-04-16T11:52:02.798Z,100575.69
2023-04-16T11:54:35.352Z,100569.19
2023-04-16T11:57:06.580Z,100564.72
2023-04-16T12:00:02.563Z,100551.75
2023-04-16T12:02:40.756Z,100558.25
2023-04-16T12:05:31.209Z,100554.59
2023-04-16T12:08:02.743Z,100552.19
2023-04-16T12:10:35.345Z,100552.19
2023-04-16T12:13:15.559Z,100557.84
2023-04-16T12:15:53.123Z,100552.59
2023-04-16T12:18:27.284Z,100555.81
2023-04-16T12:20:57.209Z,100549.34
2023-04-16T12:23:30.251Z,100546.91
2023-04-16T12:26:02.894Z,100543.69
2023-04-16T12:28:35.389Z,100548.53
2023-04-16T12:31:08.764Z,100548.53
2023-04-16T12:33:39.092Z,100548.06
2023-04-16T12:36:21.439Z,100540.81
2023-04-16T12:38:51.628Z,100531.06
2023-04-16T12:41:21.302Z,100533.91
2023-04-16T12:44:07.342Z,100524.63
2023-04-16T12:46:39.745Z,100531.91
2023-04-16T12:49:11.023Z,100527.84
2023-04-16T12:51:41.908Z,100540.00
2023-04-16T12:54:12.075Z,100531.88
2023-04-16T12:56:42.314Z,100534.31
2023-04-16T12:59:12.345Z,100524.22
2023-04-16T13:01:43.694Z,100531.09
2023-04-16T13:04:13.802Z,100529.88
2023-04-16T13:06:44.288Z,100537.53
2023-04-16T13:09:14.183Z,100534.72
2023-04-16T13:11:44.194Z,100534.28
2023-04-16T13:14:14.501Z,100540.38
2023-04-16T13:16:46.546Z,100529.03
2023-04-16T13:19:19.473Z,100531.47
2023-04-16T13:21:49.687Z,100528.22
2023-04-16T13:24:19.740Z,100531.47
2023-04-16T13:26:49.441Z,100531.03
2023-04-16T13:29:19.634Z,100522.97
2023-04-16T13:31:53.768Z,100527.78
2023-04-16T13:34:23.988Z,100520.13
2023-04-16T13:36:53.872Z,100519.72
2023-04-16T13:39:24.078Z,100516.88
2023-04-16T13:41:54.309Z,100516.06
2023-04-16T13:44:23.926Z,100525.75
2023-04-16T13:46:56.504Z,100526.56
2023-04-16T13:49:26.269Z,100513.22
2023-04-16T13:51:56.313Z,100512.75
2023-04-16T13:54:25.895Z,100516.81
2023-04-16T13:56:55.604Z,100516.38
2023-04-16T13:59:25.952Z,100522.47
2023-04-16T14:01:57.743Z,100520.84
2023-04-16T14:04:27.975Z,100509.91
2023-04-16T14:07:01.634Z,100512.34
2023-04-16T14:09:31.793Z,100507.88
2023-04-16T14:12:02.296Z,100505.47
2023-04-16T14:14:32.309Z,100506.66
2023-04-16T14:17:05.053Z,100514.34
2023-04-16T14:19:34.708Z,100518.38
2023-04-16T14:22:04.671Z,100512.31
2023-04-16T14:24:34.372Z,100510.69
2023-04-16T14:27:04.366Z,100504.22
2023-04-16T14:29:33.996Z,100508.25
2023-04-16T14:32:07.095Z,100510.28
2023-04-16T14:34:37.416Z,100511.91
2023-04-16T14:37:08.652Z,100511.91
2023-04-16T14:39:39.655Z,100514.31
2023-04-16T14:42:09.818Z,100509.06
2023-04-16T14:44:40.479Z,100509.06
2023-04-16T14:47:12.618Z,100504.63
2023-04-16T14:49:42.922Z,100505.81
2023-04-16T14:52:13.266Z,100509.03
2023-04-16T14:54:43.570Z,100513.88
2023-04-16T14:57:13.336Z,100518.75
2023-04-16T14:59:43.433Z,100517.94
2023-04-16T15:02:15.775Z,100514.69
2023-04-16T15:04:45.459Z,100517.91
2023-04-16T15:07:15.077Z,100521.16
2023-04-16T15:09:45.287Z,100517.91
2023-04-16T15:12:16.915Z,100521.13
2023-04-16T15:14:48.225Z,100524.34
2023-04-16T15:17:20.529Z,100519.53
2023-04-16T15:19:52.508Z,100524.75
2023-04-16T15:22:22.678Z,100526.75
2023-04-16T15:24:54.453Z,100532.84
2023-04-16T15:27:24.608Z,100529.59
2023-04-16T15:29:54.803Z,100536.44
2023-04-16T15:32:27.082Z,100528.38
2023-04-16T15:34:57.269Z,100540.09
2023-04-16T15:37:27.647Z,100536.84
2023-04-16T15:39:58.426Z,100540.88
2023-04-16T15:42:27.977Z,100541.28
2023-04-16T15:44:57.935Z,100534.00
2023-04-16T15:47:29.920Z,100540.03
2023-04-16T15:50:00.219Z,100536.75
2023-04-16T15:52:32.356Z,100542.41
2023-04-16T15:55:04.350Z,100542.03
2023-04-16T15:57:34.932Z,100540.41
2023-04-16T16:00:13.746Z,100554.91
2023-04-16T16:02:47.958Z,100555.31
2023-04-16T16:05:19.343Z,100550.44
2023-04-16T16:07:49.860Z,100557.31
2023-04-16T16:10:20.777Z,100569.03
2023-04-16T16:12:51.066Z,100573.06
2023-04-16T16:15:21.351Z,100561.31
2023-04-16T16:17:53.929Z,100568.22
2023-04-16T16:20:24.489Z,100567.38
2023-04-16T16:22:55.284Z,100562.94
2023-04-16T16:25:25.197Z,100554.84
2023-04-16T16:27:55.402Z,100560.09
2023-04-16T16:30:25.495Z,100545.16
2023-04-16T16:32:58.641Z,100559.66
2023-04-16T16:35:28.886Z,100562.91
2023-04-16T16:37:59.767Z,100557.66
2023-04-16T16:40:30.798Z,100548.75
2023-04-16T16:43:01.160Z,100549.94
2023-04-16T16:45:31.306Z,100540.22
2023-04-16T16:48:04.377Z,100551.53
2023-04-16T16:50:34.924Z,100549.09
2023-04-16T16:53:06.038Z,100545.84
2023-04-16T16:55:36.616Z,100545.44
2023-04-16T16:58:06.906Z,100551.09
2023-04-16T17:00:36.744Z,100543.00
2023-04-16T17:03:09.599Z,100539.38
2023-04-16T17:05:39.937Z,100538.53
2023-04-16T17:08:10.388Z,100546.22
2023-04-16T17:10:40.781Z,100538.09
2023-04-16T17:13:10.967Z,100544.16
2023-04-16T17:15:41.077Z,100541.72
2023-04-16T17:18:13.708Z,100544.94
2023-04-16T17:20:43.996Z,100538.88
2023-04-16T17:23:14.522Z,100540.88
2023-04-16T17:25:44.599Z,100532.81
2023-04-16T17:28:14.617Z,100537.63
2023-04-16T17:30:44.962Z,100542.88
2023-04-16T17:33:17.584Z,100546.91
2023-04-16T17:35:47.876Z,100548.91
2023-04-16T17:38:18.085Z,100546.47
2023-04-16T17:40:47.917Z,100547.66
2023-04-16T17:43:18.163Z,100548.84
2023-04-16T17:45:48.314Z,100550.06
2023-04-16T17:48:20.602Z,100558.53
2023-04-16T17:50:51.109Z,100556.91
2023-04-16T17:53:21.114Z,100559.34
2023-04-16T17:55:56.662Z,100554.47
2023-04-16T17:58:30.926Z,100556.88
2023-04-16T18:01:00.740Z,100558.09
2023-04-16T18:03:42.526Z,100560.13
2023-04-16T18:06:12.658Z,100564.13
2023-04-16T18:08:42.770Z,100575.00
2023-04-16T18:11:13.157Z,100568.56
2023-04-16T18:13:44.018Z,100577.41
2023-04-16T18:16:18.317Z,100575.00
2023-04-16T18:18:51.063Z,100584.66
2023-04-16T18:21:21.218Z,100592.34
2023-04-16T18:23:50.929Z,100592.72
2023-04-16T18:26:22.608Z,100594.75
2023-04-16T18:28:52.547Z,100585.84
2023-04-16T18:31:22.483Z,100583.00
2023-04-16T18:33:57.783Z,100585.03
2023-04-16T18:36:29.094Z,100578.13
2023-04-16T18:39:02.512Z,100581.78
2023-04-16T18:41:48.197Z,100576.50
2023-04-16T18:44:20.065Z,100572.88
2023-04-16T18:46:49.879Z,100566.44
2023-04-16T18:49:22.198Z,100579.31
2023-04-16T18:51:52.268Z,100574.47
2023-04-16T18:54:22.245Z,100564.38
2023-04-16T18:56:52.503Z,100565.56
2023-04-16T18:59:22.663Z,100567.59
2023-04-16T19:01:52.888Z,100576.06
2023-04-16T19:04:24.411Z,100573.63
2023-04-16T19:06:54.754Z,100574.81
2023-04-16T19:09:24.851Z,100577.66
2023-04-16T19:11:54.553Z,100583.69
2023-04-16T19:14:24.565Z,100583.69
2023-04-16T19:16:54.755Z,100589.34
2023-04-16T19:19:26.914Z,100598.22
2023-04-16T19:21:57.119Z,100605.06
2023-04-16T19:24:26.738Z,100607.06
2023-04-16T19:26:56.900Z,100617.56
2023-04-16T19:29:28.292Z,100621.19
2023-04-16T19:31:58.012Z,100613.91
2023-04-16T19:34:30.236Z,100614.75
2023-04-16T19:37:00.282Z,100616.72
2023-04-16T19:39:30.190Z,100613.09
2023-04-16T19:42:00.421Z,100615.94
2023-04-16T19:44:30.729Z,100608.66
2023-04-16T19:47:01.572Z,100615.94
2023-04-16T19:49:34.476Z,100619.56
2023-04-16T19:52:05.028Z,100619.16
2023-04-16T19:54:37.640Z,100624.81
2023-04-16T19:57:12.194Z,100618.31
2023-04-16T19:59:45.278Z,100614.69
2023-04-16T20:02:19.070Z,100611.06
2023-04-16T20:04:51.413Z,100621.56
2023-04-16T20:07:21.206Z,100627.56
2023-04-16T20:09:51.612Z,100632.41
2023-04-16T20:12:22.079Z,100640.06
2023-04-16T20:14:51.812Z,100639.66
2023-04-16T20:17:22.019Z,100640.84
2023-04-16T20:19:54.226Z,100638.41
2023-04-16T20:22:24.263Z,100655.75
2023-04-16T20:24:55.444Z,100652.13
2023-04-16T20:27:25.747Z,100654.50
2023-04-16T20:29:56.885Z,100649.66
2023-04-16T20:32:27.799Z,100644.41
2023-04-16T20:35:00.269Z,100645.22
2023-04-16T20:37:31.607Z,100647.63
2023-04-16T20:40:01.900Z,100650.81
2023-04-16T20:42:32.674Z,100654.00
2023-04-16T20:45:02.804Z,100649.56
2023-04-16T20:47:35.213Z,100656.41
2023-04-16T20:50:08.366Z,100650.75
2023-04-16T20:52:38.374Z,100644.66
2023-04-16T20:55:10.267Z,100644.66
2023-04-16T20:57:40.107Z,100640.22
2023-04-16T21:00:12.477Z,100643.03
2023-04-16T21:02:42.790Z,100641.44
2023-04-16T21:05:16.648Z,100637.78
2023-04-16T21:07:46.593Z,100639.38
2023-04-16T21:10:20.583Z,100642.19
2023-04-16T21:12:50.487Z,100643.78
2023-04-16T21:15:20.457Z,100645.00
2023-04-16T21:17:50.260Z,100636.09
2023-04-16T21:20:22.224Z,100640.09
2023-04-16T21:22:57.124Z,100637.66
2023-04-16T21:25:27.340Z,100638.88
2023-04-16T21:27:57.284Z,100640.44
2023-04-16T21:30:31.728Z,100639.63
2023-04-16T21:33:01.942Z,100650.13
2023-04-16T21:35:35.257Z,100644.84
2023-04-16T21:38:05.551Z,100643.59
2023-04-16T21:40:35.250Z,100643.59
2023-04-16T21:43:05.454Z,100647.22
2023-04-16T21:45:35.882Z,100639.16
2023-04-16T21:48:05.747Z,100640.34
2023-04-16T21:50:37.458Z,100638.72
2023-04-16T21:53:08.476Z,100635.50
2023-04-16T21:55:40.927Z,100630.22
2023-04-16T21:58:10.880Z,100624.97
2023-04-16T22:00:40.930Z,100621.31
2023-04-16T22:03:12.779Z,100623.34
2023-04-16T22:05:44.790Z,100618.88
2023-04-16T22:08:24.161Z,100624.91
2023-04-16T22:10:58.241Z,100620.47
2023-04-16T22:13:28.788Z,100616.81
2023-04-16T22:16:01.829Z,100613.94
2023-04-16T22:18:34.111Z,100617.16
2023-04-16T22:21:05.989Z,100601.81
2023-04-16T22:23:36.362Z,100609.03
2023-04-16T22:26:06.869Z,100601.72
2023-04-16T22:28:37.267Z,100596.47
2023-04-16T22:31:07.838Z,100587.56
2023-04-16T22:33:37.663Z,100592.78
2023-04-16T22:36:10.967Z,100591.97
2023-04-16T22:38:41.399Z,100582.25
2023-04-16T22:41:11.252Z,100579.78
2023-04-16T22:43:41.098Z,100578.97
2023-04-16T22:46:11.796Z,100570.91
2023-04-16T22:48:42.366Z,100564.44
2023-04-16T22:51:14.252Z,100570.47
2023-04-16T22:53:44.639Z,100568.84
2023-04-16T22:56:15.098Z,100546.66
2023-04-16T22:58:45.522Z,100537.38
2023-04-16T23:01:15.462Z,100541.41
2023-04-16T23:03:45.722Z,100541.78
2023-04-16T23:06:18.369Z,100538.16
2023-04-16T23:08:48.952Z,100527.25
2023-04-16T23:11:19.413Z,100535.28
2023-04-16T23:13:49.621Z,100537.31
2023-04-16T23:16:21.251Z,100528.41
2023-04-16T23:18:51.741Z,100528.81
2023-04-16T23:21:23.670Z,100539.25
2023-04-16T23:23:53.983Z,100517.88
2023-04-16T23:26:24.513Z,100520.72
2023-04-16T23:28:54.896Z,100531.19
2023-04-16T23:31:24.587Z,100529.16
2023-04-16T23:33:55.091Z,100521.09
2023-04-16T23:36:26.814Z,100507.41
2023-04-16T23:38:56.617Z,100521.84
2023-04-16T23:41:27.169Z,100516.22
2023-04-16T23:43:57.479Z,100522.25
2023-04-16T23:46:27.796Z,100509.72
2023-04-16T23:48:57.760Z,100517.38
2023-04-16T23:51:29.245Z,100516.13
2023-04-16T23:53:59.033Z,100518.13
2023-04-16T23:56:29.486Z,100522.97
2023-04-16T23:58:59.870Z,100509.25
